KEYW/EYW METAR and TAF weather

Enter ICAO airport designator
Station Type Date Time Source
KEYW METAR 2019/08/23 17:04 UTC NOAA

KEYW 231704Z 36009KT 10SM BKN026 32/25 A2996 RMK AO2 T03220250


Station Type Date Time Source
KEYW Decoded METAR 2019/08/23 17:04 UTC NOAA

Station name not available
Aug 23, 2019 - 01:04 PM EDT / 2019.08.23 1704 UTC
Wind: from the N (360 degrees) at 10 MPH (9 KT):0
Visibility: 10 mile(s):0
Sky conditions: mostly cloudy
Temperature: 90.0 F (32.2 C)
Heat index: 102.7 F (39.3 C):1
Dew Point: 77.0 F (25.0 C)
Relative Humidity: 65%
Pressure (altimeter): 29.96 in. Hg (1014 hPa)
ob: KEYW 231704Z 36009KT 10SM BKN026 32/25 A2996 RMK AO2 T03220250
cycle: 17

Station Type Date Time Source
KEYW TAF 2019/08/23 18:42 UTC NOAA

TAF KEYW 231741Z 2318/2418 33007KT P6SM SCT025
FM240400 27006KT P6SM VCSH SCT025
FM240900 23009KT P6SM VCSH SCT025

Example: see airport list